sensor_id;sensor_type;location;lat;lon;timestamp;pressure;altitude;pressure_sealevel;temperature;humidity
42671;BME280;28283;55.426;37.756;2023-04-01T00:02:41;97975.22;;;1.02;90.77
42671;BME280;28283;55.426;37.756;2023-04-01T00:07:42;97982.66;;;1.07;90.55
42671;BME280;28283;55.426;37.756;2023-04-01T00:12:43;97974.97;;;0.97;90.82
42671;BME280;28283;55.426;37.756;2023-04-01T00:17:44;97975.16;;;0.87;91.26
42671;BME280;28283;55.426;37.756;2023-04-01T00:22:45;97977.94;;;0.94;91.53
42671;BME280;28283;55.426;37.756;2023-04-01T00:27:46;97972.47;;;0.95;91.50
42671;BME280;28283;55.426;37.756;2023-04-01T00:32:51;97955.28;;;0.91;90.92
42671;BME280;28283;55.426;37.756;2023-04-01T00:37:52;97979.41;;;0.97;91.56
42671;BME280;28283;55.426;37.756;2023-04-01T00:42:53;97969.28;;;1.00;91.89
42671;BME280;28283;55.426;37.756;2023-04-01T00:47:54;97967.44;;;1.09;91.50
42671;BME280;28283;55.426;37.756;2023-04-01T00:52:55;97975.03;;;1.12;91.64
42671;BME280;28283;55.426;37.756;2023-04-01T00:57:57;97975.19;;;1.10;91.88
42671;BME280;28283;55.426;37.756;2023-04-01T01:02:59;97978.97;;;1.16;91.63
42671;BME280;28283;55.426;37.756;2023-04-01T01:08:21;97982.25;;;1.18;91.37
42671;BME280;28283;55.426;37.756;2023-04-01T01:13:43;97950.59;;;1.02;91.24
42671;BME280;28283;55.426;37.756;2023-04-01T01:18:54;97977.38;;;1.07;91.17
42671;BME280;28283;55.426;37.756;2023-04-01T01:24:17;97977.19;;;1.08;91.39
42671;BME280;28283;55.426;37.756;2023-04-01T01:39:52;97974.59;;;1.00;91.95
42671;BME280;28283;55.426;37.756;2023-04-01T01:44:56;97983.38;;;1.01;91.87
42671;BME280;28283;55.426;37.756;2023-04-01T01:50:00;97979.88;;;1.00;91.71
42671;BME280;28283;55.426;37.756;2023-04-01T01:55:02;97956.22;;;0.75;91.54
42671;BME280;28283;55.426;37.756;2023-04-01T02:00:04;97987.78;;;1.08;91.53
42671;BME280;28283;55.426;37.756;2023-04-01T02:05:21;97989.16;;;0.96;90.92
42671;BME280;28283;55.426;37.756;2023-04-01T02:10:25;97989.88;;;0.90;90.91
42671;BME280;28283;55.426;37.756;2023-04-01T02:15:27;97989.88;;;0.90;91.28
42671;BME280;28283;55.426;37.756;2023-04-01T02:20:32;97986.28;;;0.83;91.38
42671;BME280;28283;55.426;37.756;2023-04-01T02:25:33;97996.41;;;1.02;91.22
42671;BME280;28283;55.426;37.756;2023-04-01T02:30:36;97993.03;;;0.85;90.72
42671;BME280;28283;55.426;37.756;2023-04-01T02:35:40;97993.03;;;0.85;91.18
42671;BME280;28283;55.426;37.756;2023-04-01T02:40:57;97995.34;;;0.88;91.30
42671;BME280;28283;55.426;37.756;2023-04-01T02:45:58;97997.50;;;0.85;91.63
42671;BME280;28283;55.426;37.756;2023-04-01T02:50:59;97886.88;;;0.17;91.20
42671;BME280;28283;55.426;37.756;2023-04-01T02:56:00;97984.44;;;0.83;91.23
42671;BME280;28283;55.426;37.756;2023-04-01T03:01:00;97970.66;;;0.56;91.50
42671;BME280;28283;55.426;37.756;2023-04-01T03:06:08;98008.41;;;0.82;91.58
42671;BME280;28283;55.426;37.756;2023-04-01T03:11:10;98005.13;;;0.80;91.26
42671;BME280;28283;55.426;37.756;2023-04-01T03:16:12;98013.72;;;0.73;91.31
42671;BME280;28283;55.426;37.756;2023-04-01T03:21:18;97992.78;;;0.55;91.12
42671;BME280;28283;55.426;37.756;2023-04-01T03:26:19;98017.22;;;0.74;91.07
42671;BME280;28283;55.426;37.756;2023-04-01T03:31:20;98025.00;;;0.75;91.78
42671;BME280;28283;55.426;37.756;2023-04-01T03:36:20;98025.63;;;0.78;92.10
42671;BME280;28283;55.426;37.756;2023-04-01T03:41:21;98033.91;;;0.74;91.53
42671;BME280;28283;55.426;37.756;2023-04-01T03:46:22;97996.31;;;0.48;91.92
42671;BME280;28283;55.426;37.756;2023-04-01T03:51:23;98043.00;;;0.72;91.69
42671;BME280;28283;55.426;37.756;2023-04-01T03:56:23;98055.38;;;0.80;91.82
42671;BME280;28283;55.426;37.756;2023-04-01T04:01:24;98059.66;;;0.81;91.54
42671;BME280;28283;55.426;37.756;2023-04-01T04:06:25;98067.09;;;0.77;91.86
42671;BME280;28283;55.426;37.756;2023-04-01T04:11:26;98058.03;;;0.71;92.39
42671;BME280;28283;55.426;37.756;2023-04-01T04:16:27;98065.00;;;0.72;91.73
42671;BME280;28283;55.426;37.756;2023-04-01T04:21:27;98032.97;;;0.51;92.27
42671;BME280;28283;55.426;37.756;2023-04-01T04:26:28;97977.41;;;0.11;91.90
42671;BME280;28283;55.426;37.756;2023-04-01T04:31:29;98091.41;;;0.81;92.16
42671;BME280;28283;55.426;37.756;2023-04-01T04:36:30;98073.09;;;0.71;91.76
42671;BME280;28283;55.426;37.756;2023-04-01T04:41:30;98044.22;;;0.53;92.08
42671;BME280;28283;55.426;37.756;2023-04-01T04:46:31;98098.03;;;0.85;92.30
42671;BME280;28283;55.426;37.756;2023-04-01T04:51:32;98095.38;;;0.85;92.23
42671;BME280;28283;55.426;37.756;2023-04-01T04:56:36;98098.03;;;0.85;92.87
42671;BME280;28283;55.426;37.756;2023-04-01T05:01:37;98089.72;;;0.88;92.51
42671;BME280;28283;55.426;37.756;2023-04-01T05:06:37;98127.41;;;1.06;92.46
42671;BME280;28283;55.426;37.756;2023-04-01T05:11:38;98112.00;;;1.10;92.39
42671;BME280;28283;55.426;37.756;2023-04-01T05:16:39;98096.31;;;1.00;92.03
42671;BME280;28283;55.426;37.756;2023-04-01T05:21:40;98126.84;;;1.19;92.38
42671;BME280;28283;55.426;37.756;2023-04-01T05:26:41;98111.47;;;1.14;92.10
42671;BME280;28283;55.426;37.756;2023-04-01T05:31:41;98103.53;;;1.14;91.88
42671;BME280;28283;55.426;37.756;2023-04-01T05:36:42;98129.97;;;1.23;91.85
42671;BME280;28283;55.426;37.756;2023-04-01T05:41:43;98127.66;;;1.20;91.82
42671;BME280;28283;55.426;37.756;2023-04-01T05:46:44;98135.09;;;1.24;91.72
42671;BME280;28283;55.426;37.756;2023-04-01T05:51:44;98141.16;;;1.41;91.85
42671;BME280;28283;55.426;37.756;2023-04-01T05:56:47;98145.78;;;1.47;92.09
42671;BME280;28283;55.426;37.756;2023-04-01T06:01:48;98120.53;;;1.28;91.70
42671;BME280;28283;55.426;37.756;2023-04-01T06:06:49;98159.97;;;1.55;91.62
42671;BME280;28283;55.426;37.756;2023-04-01T06:17:48;98153.72;;;1.79;92.21
42671;BME280;28283;55.426;37.756;2023-04-01T06:34:20;98171.88;;;2.13;89.97
42671;BME280;28283;55.426;37.756;2023-04-01T06:55:26;98196.41;;;2.61;90.19
42671;BME280;28283;55.426;37.756;2023-04-01T07:00:29;98195.63;;;2.76;89.95
42671;BME280;28283;55.426;37.756;2023-04-01T07:05:32;98188.34;;;2.93;89.82
42671;BME280;28283;55.426;37.756;2023-04-01T07:16:21;98206.16;;;3.52;87.58
42671;BME280;28283;55.426;37.756;2023-04-01T07:21:35;98210.91;;;3.56;88.29
42671;BME280;28283;55.426;37.756;2023-04-01T07:26:38;98205.19;;;3.74;86.90
42671;BME280;28283;55.426;37.756;2023-04-01T07:37:42;98202.50;;;3.89;87.10
42671;BME280;28283;55.426;37.756;2023-04-01T08:09:38;98238.81;;;4.98;79.20
42671;BME280;28283;55.426;37.756;2023-04-01T08:14:56;98237.72;;;5.14;79.07
42671;BME280;28283;55.426;37.756;2023-04-01T08:25:24;98256.50;;;5.62;78.68
42671;BME280;28283;55.426;37.756;2023-04-01T08:30:50;98265.75;;;5.66;76.46
42671;BME280;28283;55.426;37.756;2023-04-01T08:36:05;98248.66;;;5.54;76.94
42671;BME280;28283;55.426;37.756;2023-04-01T08:52:21;98264.22;;;5.92;75.68
42671;BME280;28283;55.426;37.756;2023-04-01T09:13:54;98273.53;;;6.44;72.15
42671;BME280;28283;55.426;37.756;2023-04-01T09:40:09;98280.59;;;6.79;69.47
42671;BME280;28283;55.426;37.756;2023-04-01T09:45:37;98296.66;;;7.05;69.16
42671;BME280;28283;55.426;37.756;2023-04-01T10:01:54;98305.81;;;8.03;66.16
42671;BME280;28283;55.426;37.756;2023-04-01T10:07:17;98306.69;;;8.49;66.07
42671;BME280;28283;55.426;37.756;2023-04-01T10:17:41;98307.63;;;8.74;62.84
42671;BME280;28283;55.426;37.756;2023-04-01T11:01:27;98338.16;;;10.61;57.15
42671;BME280;28283;55.426;37.756;2023-04-01T11:23:18;98357.66;;;10.57;55.33
42671;BME280;28283;55.426;37.756;2023-04-01T11:28:27;98347.59;;;10.08;53.69
42671;BME280;28283;55.426;37.756;2023-04-01T11:44:26;98337.09;;;9.63;54.37
42671;BME280;28283;55.426;37.756;2023-04-01T12:10:59;98364.25;;;9.48;55.53
42671;BME280;28283;55.426;37.756;2023-04-01T12:16:13;98358.63;;;9.31;55.89
42671;BME280;28283;55.426;37.756;2023-04-01T12:37:10;98357.34;;;8.64;54.56
42671;BME280;28283;55.426;37.756;2023-04-01T13:20:03;98381.81;;;7.95;61.43
42671;BME280;28283;55.426;37.756;2023-04-01T13:46:54;98427.50;;;8.00;64.52
42671;BME280;28283;55.426;37.756;2023-04-01T13:58:07;98433.03;;;7.86;65.33
42671;BME280;28283;55.426;37.756;2023-04-01T14:19:08;98439.63;;;7.63;66.93
42671;BME280;28283;55.426;37.756;2023-04-01T14:34:55;98459.16;;;7.43;68.59
42671;BME280;28283;55.426;37.756;2023-04-01T14:40:27;98462.44;;;7.45;68.93
42671;BME280;28283;55.426;37.756;2023-04-01T14:50:48;98471.41;;;7.18;69.95
42671;BME280;28283;55.426;37.756;2023-04-01T14:55:59;98464.81;;;7.14;70.12
42671;BME280;28283;55.426;37.756;2023-04-01T15:06:41;98489.28;;;7.11;71.46
42671;BME280;28283;55.426;37.756;2023-04-01T15:17:31;98483.44;;;6.94;72.33
42671;BME280;28283;55.426;37.756;2023-04-01T15:33:09;98512.97;;;6.85;73.05
42671;BME280;28283;55.426;37.756;2023-04-01T15:38:26;98493.78;;;6.68;74.26
42671;BME280;28283;55.426;37.756;2023-04-01T15:43:48;98528.00;;;6.86;73.79
42671;BME280;28283;55.426;37.756;2023-04-01T15:48:57;98522.19;;;6.76;74.26
42671;BME280;28283;55.426;37.756;2023-04-01T15:59:56;98539.75;;;6.64;74.66
42671;BME280;28283;55.426;37.756;2023-04-01T16:21:27;98532.97;;;6.33;76.32
42671;BME280;28283;55.426;37.756;2023-04-01T16:26:50;98500.44;;;5.95;76.66
42671;BME280;28283;55.426;37.756;2023-04-01T16:31:55;98589.53;;;6.43;76.73
42671;BME280;28283;55.426;37.756;2023-04-01T16:37:05;98602.00;;;6.36;77.88
42671;BME280;28283;55.426;37.756;2023-04-01T16:47:17;98605.19;;;6.25;78.68
42671;BME280;28283;55.426;37.756;2023-04-01T16:58:00;98607.47;;;6.06;80.78
42671;BME280;28283;55.426;37.756;2023-04-01T17:08:32;98613.28;;;5.95;81.92
42671;BME280;28283;55.426;37.756;2023-04-01T17:19:27;98614.41;;;5.86;82.99
42671;BME280;28283;55.426;37.756;2023-04-01T17:25:01;98615.63;;;5.83;82.65
42671;BME280;28283;55.426;37.756;2023-04-01T17:35:33;98617.94;;;5.71;83.75
42671;BME280;28283;55.426;37.756;2023-04-01T17:46:04;98568.47;;;5.32;84.29
42671;BME280;28283;55.426;37.756;2023-04-01T17:51:21;98638.66;;;5.69;84.80
42671;BME280;28283;55.426;37.756;2023-04-01T17:56:42;98641.03;;;5.64;84.76
42671;BME280;28283;55.426;37.756;2023-04-01T18:01:54;98651.63;;;5.58;84.79
42671;BME280;28283;55.426;37.756;2023-04-01T18:17:21;98651.78;;;5.56;85.26
42671;BME280;28283;55.426;37.756;2023-04-01T18:22:41;98661.56;;;5.64;85.49
42671;BME280;28283;55.426;37.756;2023-04-01T18:27:47;98643.66;;;5.43;85.89
42671;BME280;28283;55.426;37.756;2023-04-01T18:38:39;98632.06;;;5.35;86.04
42671;BME280;28283;55.426;37.756;2023-04-01T18:49:25;98678.38;;;5.64;85.47
42671;BME280;28283;55.426;37.756;2023-04-01T18:54:32;98611.78;;;5.20;85.73
42671;BME280;28283;55.426;37.756;2023-04-01T18:59:43;98676.34;;;5.66;86.04
42671;BME280;28283;55.426;37.756;2023-04-01T19:04:56;98690.25;;;5.62;86.03
42671;BME280;28283;55.426;37.756;2023-04-01T19:10:06;98694.09;;;5.59;86.17
42671;BME280;28283;55.426;37.756;2023-04-01T19:20:47;98685.09;;;5.60;86.48
42671;BME280;28283;55.426;37.756;2023-04-01T19:25:51;98669.47;;;5.57;86.46
42671;BME280;28283;55.426;37.756;2023-04-01T19:30:58;98676.25;;;5.60;86.15
42671;BME280;28283;55.426;37.756;2023-04-01T19:36:13;98663.75;;;5.45;86.46
42671;BME280;28283;55.426;37.756;2023-04-01T19:41:39;98693.38;;;5.65;87.16
42671;BME280;28283;55.426;37.756;2023-04-01T19:46:54;98707.25;;;5.61;86.83
42671;BME280;28283;55.426;37.756;2023-04-01T20:02:36;98715.06;;;5.62;87.37
42671;BME280;28283;55.426;37.756;2023-04-01T20:07:52;98720.38;;;5.62;87.36
42671;BME280;28283;55.426;37.756;2023-04-01T20:23:33;98714.13;;;5.55;87.29
42671;BME280;28283;55.426;37.756;2023-04-01T20:28:48;98735.63;;;5.68;87.47
42671;BME280;28283;55.426;37.756;2023-04-01T20:44:41;98725.72;;;5.77;87.53
42671;BME280;28283;55.426;37.756;2023-04-01T20:49:55;98734.53;;;5.78;87.81
42671;BME280;28283;55.426;37.756;2023-04-01T21:00:27;98703.75;;;5.60;87.20
42671;BME280;28283;55.426;37.756;2023-04-01T21:05:55;98731.69;;;5.79;87.65
42671;BME280;28283;55.426;37.756;2023-04-01T21:11:27;98728.00;;;5.80;87.86
42671;BME280;28283;55.426;37.756;2023-04-01T21:16:53;98729.19;;;5.78;87.44
42671;BME280;28283;55.426;37.756;2023-04-01T22:04:32;98756.78;;;5.85;89.48
42671;BME280;28283;55.426;37.756;2023-04-01T22:20:25;98768.28;;;5.85;89.76
42671;BME280;28283;55.426;37.756;2023-04-01T22:25:45;98740.25;;;5.74;90.24
42671;BME280;28283;55.426;37.756;2023-04-01T22:30:52;98757.72;;;5.77;89.56
42671;BME280;28283;55.426;37.756;2023-04-01T22:36:11;98786.84;;;5.93;90.20
42671;BME280;28283;55.426;37.756;2023-04-01T22:41:19;98783.03;;;5.96;89.67
42671;BME280;28283;55.426;37.756;2023-04-01T22:46:40;98770.03;;;5.93;90.32
42671;BME280;28283;55.426;37.756;2023-04-01T22:51:50;98740.53;;;5.80;90.37
42671;BME280;28283;55.426;37.756;2023-04-01T22:57:04;98782.00;;;5.97;90.23
42671;BME280;28283;55.426;37.756;2023-04-01T23:02:43;98779.25;;;6.05;90.50
42671;BME280;28283;55.426;37.756;2023-04-01T23:08:19;98782.38;;;6.09;90.50
42671;BME280;28283;55.426;37.756;2023-04-01T23:13:35;98777.75;;;6.03;90.78
42671;BME280;28283;55.426;37.756;2023-04-01T23:18:46;98778.31;;;6.13;90.78
42671;BME280;28283;55.426;37.756;2023-04-01T23:29:00;98794.78;;;6.17;91.08
42671;BME280;28283;55.426;37.756;2023-04-01T23:39:56;98787.22;;;6.20;90.67
42671;BME280;28283;55.426;37.756;2023-04-01T23:44:39;98785.50;;;6.13;90.47
42671;BME280;28283;55.426;37.756;2023-04-01T23:49:44;98764.81;;;6.00;90.65
42671;BME280;28283;55.426;37.756;2023-04-01T23:54:57;98747.22;;;5.90;90.60
